sensor_id;sensor_type;location;lat;lon;timestamp;pressure;altitude;pressure_sealevel;temperature;humidity
34742;BME280;20968;42.696;23.360;2023-05-29T00:01:06;95000.91;;;17.72;69.92
34742;BME280;20968;42.696;23.360;2023-05-29T00:03:37;95004.19;;;17.71;69.94
34742;BME280;20968;42.696;23.360;2023-05-29T00:06:03;95010.66;;;17.79;69.83
34742;BME280;20968;42.696;23.360;2023-05-29T00:08:31;95013.59;;;17.86;70.02
34742;BME280;20968;42.696;23.360;2023-05-29T00:11:01;95013.38;;;17.84;69.80
34742;BME280;20968;42.696;23.360;2023-05-29T00:13:26;95018.53;;;17.80;69.57
34742;BME280;20968;42.696;23.360;2023-05-29T00:15:52;95023.78;;;17.84;70.01
34742;BME280;20968;42.696;23.360;2023-05-29T00:18:18;95014.88;;;17.85;69.29
34742;BME280;20968;42.696;23.360;2023-05-29T00:20:46;95008.97;;;17.76;69.38
34742;BME280;20968;42.696;23.360;2023-05-29T00:23:16;95014.22;;;17.79;69.66
34742;BME280;20968;42.696;23.360;2023-05-29T00:25:42;95022.03;;;17.81;69.80
34742;BME280;20968;42.696;23.360;2023-05-29T00:28:09;94998.72;;;17.65;69.92
34742;BME280;20968;42.696;23.360;2023-05-29T00:30:35;95025.22;;;17.72;70.27
34742;BME280;20968;42.696;23.360;2023-05-29T00:33:03;95010.31;;;17.69;70.01
34742;BME280;20968;42.696;23.360;2023-05-29T00:35:30;95001.06;;;17.61;70.14
34742;BME280;20968;42.696;23.360;2023-05-29T00:37:56;94992.56;;;17.54;70.51
34742;BME280;20968;42.696;23.360;2023-05-29T00:40:22;94993.31;;;17.54;70.46
34742;BME280;20968;42.696;23.360;2023-05-29T00:42:48;95008.50;;;17.53;70.60
34742;BME280;20968;42.696;23.360;2023-05-29T00:45:14;95000.69;;;17.52;70.33
34742;BME280;20968;42.696;23.360;2023-05-29T00:47:41;95001.91;;;17.38;71.28
34742;BME280;20968;42.696;23.360;2023-05-29T00:50:11;95002.22;;;17.34;71.42
34742;BME280;20968;42.696;23.360;2023-05-29T00:52:39;94998.66;;;17.34;71.04
34742;BME280;20968;42.696;23.360;2023-05-29T00:55:06;95001.50;;;17.28;71.35
34742;BME280;20968;42.696;23.360;2023-05-29T00:57:33;94990.25;;;17.15;71.56
34742;BME280;20968;42.696;23.360;2023-05-29T01:00:02;95000.34;;;17.18;72.13
34742;BME280;20968;42.696;23.360;2023-05-29T01:02:31;95011.22;;;16.98;73.17
34742;BME280;20968;42.696;23.360;2023-05-29T01:04:56;94994.31;;;16.96;72.88
34742;BME280;20968;42.696;23.360;2023-05-29T01:07:22;94999.75;;;17.07;72.55
34742;BME280;20968;42.696;23.360;2023-05-29T01:09:50;95000.03;;;17.04;72.34
34742;BME280;20968;42.696;23.360;2023-05-29T01:12:30;95001.31;;;17.03;72.27
34742;BME280;20968;42.696;23.360;2023-05-29T01:15:21;95004.38;;;16.99;72.85
34742;BME280;20968;42.696;23.360;2023-05-29T01:18:04;94997.75;;;17.02;73.33
34742;BME280;20968;42.696;23.360;2023-05-29T01:20:52;94984.25;;;16.93;73.23
34742;BME280;20968;42.696;23.360;2023-05-29T01:29:04;95008.28;;;17.09;72.54
34742;BME280;20968;42.696;23.360;2023-05-29T01:31:32;95002.28;;;17.05;72.63
34742;BME280;20968;42.696;23.360;2023-05-29T01:34:07;95009.50;;;17.13;72.10
34742;BME280;20968;42.696;23.360;2023-05-29T01:36:36;94992.00;;;17.00;72.28
34742;BME280;20968;42.696;23.360;2023-05-29T01:39:03;94997.63;;;17.13;71.68
34742;BME280;20968;42.696;23.360;2023-05-29T01:41:31;95007.50;;;17.14;71.65
34742;BME280;20968;42.696;23.360;2023-05-29T01:44:06;94995.56;;;16.95;72.47
34742;BME280;20968;42.696;23.360;2023-05-29T01:46:41;95010.53;;;16.92;72.53
34742;BME280;20968;42.696;23.360;2023-05-29T01:49:09;95002.19;;;16.92;72.61
34742;BME280;20968;42.696;23.360;2023-05-29T01:51:36;94995.94;;;16.86;72.31
34742;BME280;20968;42.696;23.360;2023-05-29T01:54:02;94990.22;;;16.79;72.96
34742;BME280;20968;42.696;23.360;2023-05-29T01:56:31;94993.91;;;16.87;72.76
34742;BME280;20968;42.696;23.360;2023-05-29T01:58:57;94993.72;;;16.79;73.36
34742;BME280;20968;42.696;23.360;2023-05-29T02:01:24;94995.59;;;16.71;73.78
34742;BME280;20968;42.696;23.360;2023-05-29T02:03:50;94985.81;;;16.65;73.53
34742;BME280;20968;42.696;23.360;2023-05-29T02:06:18;94973.25;;;16.58;74.39
34742;BME280;20968;42.696;23.360;2023-05-29T02:08:46;94987.16;;;16.58;73.95
34742;BME280;20968;42.696;23.360;2023-05-29T02:11:14;94988.41;;;16.57;73.93
34742;BME280;20968;42.696;23.360;2023-05-29T02:13:42;94989.94;;;16.58;73.98
34742;BME280;20968;42.696;23.360;2023-05-29T02:16:08;94985.00;;;16.46;73.61
34742;BME280;20968;42.696;23.360;2023-05-29T02:18:35;94983.13;;;16.30;73.92
34742;BME280;20968;42.696;23.360;2023-05-29T02:21:00;94988.75;;;16.25;75.07
34742;BME280;20968;42.696;23.360;2023-05-29T02:23:27;94983.66;;;16.29;74.56
34742;BME280;20968;42.696;23.360;2023-05-29T02:25:54;94983.91;;;16.25;74.79
34742;BME280;20968;42.696;23.360;2023-05-29T02:28:21;94988.13;;;16.08;75.56
34742;BME280;20968;42.696;23.360;2023-05-29T02:30:48;94989.34;;;16.12;75.33
34742;BME280;20968;42.696;23.360;2023-05-29T02:33:18;94982.56;;;16.08;74.53
34742;BME280;20968;42.696;23.360;2023-05-29T02:35:44;94991.59;;;16.14;74.88
34742;BME280;20968;42.696;23.360;2023-05-29T02:38:12;94987.59;;;16.09;75.00
34742;BME280;20968;42.696;23.360;2023-05-29T02:40:44;94993.56;;;16.19;75.30
34742;BME280;20968;42.696;23.360;2023-05-29T02:43:12;94986.78;;;16.14;75.00
34742;BME280;20968;42.696;23.360;2023-05-29T02:45:38;94992.84;;;16.18;74.74
34742;BME280;20968;42.696;23.360;2023-05-29T02:48:06;94997.63;;;16.18;75.55
34742;BME280;20968;42.696;23.360;2023-05-29T02:50:41;95004.94;;;16.21;75.02
34742;BME280;20968;42.696;23.360;2023-05-29T02:53:07;95005.47;;;16.19;74.95
34742;BME280;20968;42.696;23.360;2023-05-29T02:55:32;94991.94;;;16.05;75.51
34742;BME280;20968;42.696;23.360;2023-05-29T02:58:01;94986.41;;;15.99;75.77
34742;BME280;20968;42.696;23.360;2023-05-29T03:00:26;94986.19;;;15.97;75.90
34742;BME280;20968;42.696;23.360;2023-05-29T03:02:54;94988.88;;;16.08;75.71
34742;BME280;20968;42.696;23.360;2023-05-29T03:05:21;94997.63;;;16.18;75.59
34742;BME280;20968;42.696;23.360;2023-05-29T03:07:46;94992.19;;;16.07;75.29
34742;BME280;20968;42.696;23.360;2023-05-29T03:10:12;94999.94;;;16.14;76.14
34742;BME280;20968;42.696;23.360;2023-05-29T03:12:42;95007.75;;;16.15;75.83
34742;BME280;20968;42.696;23.360;2023-05-29T03:15:09;95002.69;;;16.19;75.66
34742;BME280;20968;42.696;23.360;2023-05-29T03:17:35;94988.78;;;16.19;75.66
34742;BME280;20968;42.696;23.360;2023-05-29T03:20:04;94997.06;;;16.25;75.60
34742;BME280;20968;42.696;23.360;2023-05-29T03:22:38;94998.84;;;16.22;76.34
34742;BME280;20968;42.696;23.360;2023-05-29T03:25:05;94990.47;;;16.28;75.71
34742;BME280;20968;42.696;23.360;2023-05-29T03:27:31;95010.84;;;16.41;75.40
34742;BME280;20968;42.696;23.360;2023-05-29T03:29:58;95009.97;;;16.51;75.27
34742;BME280;20968;42.696;23.360;2023-05-29T03:32:24;95005.16;;;16.52;75.16
34742;BME280;20968;42.696;23.360;2023-05-29T03:34:50;95023.94;;;16.70;75.74
34742;BME280;20968;42.696;23.360;2023-05-29T03:37:45;95016.53;;;16.78;75.42
34742;BME280;20968;42.696;23.360;2023-05-29T03:40:18;95026.53;;;16.86;75.67
34742;BME280;20968;42.696;23.360;2023-05-29T03:42:46;95024.97;;;16.91;75.04
34742;BME280;20968;42.696;23.360;2023-05-29T03:45:14;95038.75;;;17.02;74.98
34742;BME280;20968;42.696;23.360;2023-05-29T03:47:42;95028.78;;;17.12;75.09
34742;BME280;20968;42.696;23.360;2023-05-29T03:50:10;95024.94;;;17.14;75.08
34742;BME280;20968;42.696;23.360;2023-05-29T03:52:39;95034.41;;;17.30;74.37
34742;BME280;20968;42.696;23.360;2023-05-29T03:55:17;95033.19;;;17.44;73.96
34742;BME280;20968;42.696;23.360;2023-05-29T03:57:48;95029.81;;;17.51;73.39
34742;BME280;20968;42.696;23.360;2023-05-29T04:00:14;95028.53;;;17.52;73.63
34742;BME280;20968;42.696;23.360;2023-05-29T04:02:45;95027.63;;;17.44;73.47
34742;BME280;20968;42.696;23.360;2023-05-29T04:05:17;95029.88;;;17.45;73.87
34742;BME280;20968;42.696;23.360;2023-05-29T04:07:43;95043.75;;;17.51;73.85
34742;BME280;20968;42.696;23.360;2023-05-29T04:10:09;95052.78;;;17.57;73.29
34742;BME280;20968;42.696;23.360;2023-05-29T04:12:36;95057.97;;;17.66;73.79
34742;BME280;20968;42.696;23.360;2023-05-29T04:15:28;95056.81;;;17.74;73.15
34742;BME280;20968;42.696;23.360;2023-05-29T04:17:59;95055.63;;;17.70;72.91
34742;BME280;20968;42.696;23.360;2023-05-29T04:20:26;95051.19;;;17.61;72.92
34742;BME280;20968;42.696;23.360;2023-05-29T04:23:02;95053.53;;;17.76;73.03
34742;BME280;20968;42.696;23.360;2023-05-29T04:25:29;95039.50;;;17.63;73.11
34742;BME280;20968;42.696;23.360;2023-05-29T04:27:59;95049.91;;;17.81;73.47
34742;BME280;20968;42.696;23.360;2023-05-29T04:30:34;95058.78;;;17.97;73.91
34742;BME280;20968;42.696;23.360;2023-05-29T04:33:00;95063.28;;;18.00;74.18
34742;BME280;20968;42.696;23.360;2023-05-29T04:35:28;95055.41;;;18.17;73.62
34742;BME280;20968;42.696;23.360;2023-05-29T04:37:57;95064.97;;;18.40;72.74
34742;BME280;20968;42.696;23.360;2023-05-29T04:40:24;95067.28;;;18.55;72.42
34742;BME280;20968;42.696;23.360;2023-05-29T04:45:24;95057.19;;;18.65;71.19
34742;BME280;20968;42.696;23.360;2023-05-29T04:47:53;95057.56;;;18.74;70.85
34742;BME280;20968;42.696;23.360;2023-05-29T04:50:21;95066.03;;;18.81;69.97
34742;BME280;20968;42.696;23.360;2023-05-29T04:52:50;95069.13;;;18.78;70.53
34742;BME280;20968;42.696;23.360;2023-05-29T04:55:19;95065.72;;;18.85;69.75
34742;BME280;20968;42.696;23.360;2023-05-29T04:57:48;95070.44;;;18.90;69.22
34742;BME280;20968;42.696;23.360;2023-05-29T05:00:14;95074.63;;;18.96;68.48
34742;BME280;20968;42.696;23.360;2023-05-29T05:02:46;95091.50;;;19.04;67.98
34742;BME280;20968;42.696;23.360;2023-05-29T05:05:18;95081.94;;;18.86;68.01
34742;BME280;20968;42.696;23.360;2023-05-29T05:07:53;95086.53;;;18.84;67.91
34742;BME280;20968;42.696;23.360;2023-05-29T05:10:20;95103.81;;;18.95;67.75
34742;BME280;20968;42.696;23.360;2023-05-29T05:12:46;95092.34;;;18.86;67.62
34742;BME280;20968;42.696;23.360;2023-05-29T05:15:17;95111.00;;;18.91;67.47
34742;BME280;20968;42.696;23.360;2023-05-29T05:17:44;95105.88;;;18.95;67.71
34742;BME280;20968;42.696;23.360;2023-05-29T05:20:43;95107.81;;;19.00;67.86
34742;BME280;20968;42.696;23.360;2023-05-29T05:23:09;95101.66;;;18.88;67.97
34742;BME280;20968;42.696;23.360;2023-05-29T05:25:44;95105.75;;;18.87;67.59
34742;BME280;20968;42.696;23.360;2023-05-29T05:28:26;95104.16;;;18.92;67.97
34742;BME280;20968;42.696;23.360;2023-05-29T05:31:17;95100.84;;;18.93;68.21
34742;BME280;20968;42.696;23.360;2023-05-29T05:34:11;95111.06;;;19.04;67.99
34742;BME280;20968;42.696;23.360;2023-05-29T05:37:18;95105.97;;;19.02;68.36
34742;BME280;20968;42.696;23.360;2023-05-29T05:40:07;95107.88;;;19.13;67.96
34742;BME280;20968;42.696;23.360;2023-05-29T05:43:06;95110.66;;;19.13;67.73
34742;BME280;20968;42.696;23.360;2023-05-29T05:45:47;95103.34;;;19.23;67.70
34742;BME280;20968;42.696;23.360;2023-05-29T05:48:20;95097.13;;;19.30;67.60
34742;BME280;20968;42.696;23.360;2023-05-29T05:50:58;95101.97;;;19.42;67.82
34742;BME280;20968;42.696;23.360;2023-05-29T05:53:34;95095.31;;;19.45;67.91
34742;BME280;20968;42.696;23.360;2023-05-29T05:56:50;95100.13;;;19.57;65.84
34742;BME280;20968;42.696;23.360;2023-05-29T06:00:02;95103.47;;;19.69;67.14
34742;BME280;20968;42.696;23.360;2023-05-29T06:02:55;95100.56;;;19.49;67.07
34742;BME280;20968;42.696;23.360;2023-05-29T06:06:11;95098.72;;;19.25;67.64
34742;BME280;20968;42.696;23.360;2023-05-29T06:09:03;95091.22;;;19.33;66.84
34742;BME280;20968;42.696;23.360;2023-05-29T06:12:05;95102.59;;;19.48;66.89
34742;BME280;20968;42.696;23.360;2023-05-29T06:18:26;95111.84;;;19.69;65.77
34742;BME280;20968;42.696;23.360;2023-05-29T06:21:13;95112.03;;;19.71;65.84
34742;BME280;20968;42.696;23.360;2023-05-29T06:24:06;95114.06;;;19.83;65.34
34742;BME280;20968;42.696;23.360;2023-05-29T06:26:32;95107.00;;;19.69;65.15
34742;BME280;20968;42.696;23.360;2023-05-29T06:29:04;95113.69;;;19.66;65.26
34742;BME280;20968;42.696;23.360;2023-05-29T06:31:32;95117.28;;;19.74;65.69
34742;BME280;20968;42.696;23.360;2023-05-29T06:33:59;95104.09;;;19.75;65.13
34742;BME280;20968;42.696;23.360;2023-05-29T06:36:46;95099.34;;;19.96;64.83
34742;BME280;20968;42.696;23.360;2023-05-29T06:39:33;95112.31;;;20.06;64.34
34742;BME280;20968;42.696;23.360;2023-05-29T06:42:05;95107.72;;;19.96;64.93
34742;BME280;20968;42.696;23.360;2023-05-29T06:44:35;95102.03;;;19.88;64.75
34742;BME280;20968;42.696;23.360;2023-05-29T06:47:01;95106.31;;;20.02;65.05
34742;BME280;20968;42.696;23.360;2023-05-29T06:49:27;95105.66;;;20.09;64.74
34742;BME280;20968;42.696;23.360;2023-05-29T06:51:53;95100.47;;;20.13;65.03
34742;BME280;20968;42.696;23.360;2023-05-29T06:54:26;95107.81;;;20.36;64.56
34742;BME280;20968;42.696;23.360;2023-05-29T06:56:56;95107.81;;;20.36;64.54
34742;BME280;20968;42.696;23.360;2023-05-29T06:59:37;95110.88;;;20.26;63.89
34742;BME280;20968;42.696;23.360;2023-05-29T07:02:09;95100.19;;;20.37;63.66
34742;BME280;20968;42.696;23.360;2023-05-29T07:04:47;95090.16;;;20.62;64.40
34742;BME280;20968;42.696;23.360;2023-05-29T07:07:16;95108.19;;;20.74;63.14
34742;BME280;20968;42.696;23.360;2023-05-29T07:10:06;95109.78;;;20.82;64.24
34742;BME280;20968;42.696;23.360;2023-05-29T07:12:47;95108.25;;;21.22;62.73
34742;BME280;20968;42.696;23.360;2023-05-29T07:15:17;95114.94;;;21.19;60.56
34742;BME280;20968;42.696;23.360;2023-05-29T07:17:44;95104.69;;;21.21;60.58
34742;BME280;20968;42.696;23.360;2023-05-29T07:20:15;95110.47;;;21.44;62.07
34742;BME280;20968;42.696;23.360;2023-05-29T07:22:57;95120.75;;;21.77;61.51
34742;BME280;20968;42.696;23.360;2023-05-29T07:32:56;95105.28;;;21.83;59.43
34742;BME280;20968;42.696;23.360;2023-05-29T07:35:50;95117.59;;;21.80;59.61
34742;BME280;20968;42.696;23.360;2023-05-29T07:38:38;95109.59;;;21.84;60.48
34742;BME280;20968;42.696;23.360;2023-05-29T07:42:21;95112.06;;;21.95;60.77
34742;BME280;20968;42.696;23.360;2023-05-29T07:45:50;95117.50;;;21.58;61.14
34742;BME280;20968;42.696;23.360;2023-05-29T07:49:07;95110.22;;;21.97;61.41
34742;BME280;20968;42.696;23.360;2023-05-29T07:51:45;95111.94;;;22.08;58.88
34742;BME280;20968;42.696;23.360;2023-05-29T07:54:14;95114.13;;;21.94;59.35
34742;BME280;20968;42.696;23.360;2023-05-29T07:56:49;95112.06;;;21.95;59.27
34742;BME280;20968;42.696;23.360;2023-05-29T07:59:32;95107.22;;;22.03;58.29
34742;BME280;20968;42.696;23.360;2023-05-29T08:02:38;95107.09;;;21.73;58.75
34742;BME280;20968;42.696;23.360;2023-05-29T08:05:36;95118.50;;;21.68;59.33
34742;BME280;20968;42.696;23.360;2023-05-29T08:08:33;95110.66;;;21.74;61.05
34742;BME280;20968;42.696;23.360;2023-05-29T08:11:33;95121.53;;;21.85;61.47
34742;BME280;20968;42.696;23.360;2023-05-29T08:17:49;95119.06;;;22.67;57.97
34742;BME280;20968;42.696;23.360;2023-05-29T08:20:35;95107.66;;;22.94;55.88
34742;BME280;20968;42.696;23.360;2023-05-29T08:23:07;95115.38;;;23.16;57.23
34742;BME280;20968;42.696;23.360;2023-05-29T08:25:33;95119.69;;;23.47;55.38
34742;BME280;20968;42.696;23.360;2023-05-29T08:28:00;95115.56;;;23.55;55.93
34742;BME280;20968;42.696;23.360;2023-05-29T08:30:25;95116.47;;;23.80;54.27
34742;BME280;20968;42.696;23.360;2023-05-29T08:33:08;95118.19;;;23.53;54.31
34742;BME280;20968;42.696;23.360;2023-05-29T08:35:34;95121.00;;;23.16;55.21
34742;BME280;20968;42.696;23.360;2023-05-29T08:38:00;95119.88;;;23.42;54.44
34742;BME280;20968;42.696;23.360;2023-05-29T08:40:26;95112.22;;;23.35;52.51
34742;BME280;20968;42.696;23.360;2023-05-29T08:43:14;95115.16;;;23.52;52.53
34742;BME280;20968;42.696;23.360;2023-05-29T08:49:43;95105.28;;;23.06;52.57
34742;BME280;20968;42.696;23.360;2023-05-29T08:52:16;95110.88;;;23.21;51.78
34742;BME280;20968;42.696;23.360;2023-05-29T08:55:04;95103.19;;;22.99;51.33
34742;BME280;20968;42.696;23.360;2023-05-29T08:57:30;95109.72;;;22.79;52.35
34742;BME280;20968;42.696;23.360;2023-05-29T09:00:13;95094.94;;;22.71;53.70
34742;BME280;20968;42.696;23.360;2023-05-29T09:02:58;95084.06;;;22.75;53.88
34742;BME280;20968;42.696;23.360;2023-05-29T09:05:30;95094.75;;;22.84;53.08
34742;BME280;20968;42.696;23.360;2023-05-29T09:08:09;95078.25;;;22.66;53.72
34742;BME280;20968;42.696;23.360;2023-05-29T09:11:01;95087.44;;;22.73;50.95
34742;BME280;20968;42.696;23.360;2023-05-29T09:13:28;95079.38;;;22.63;50.62
34742;BME280;20968;42.696;23.360;2023-05-29T09:23:02;95074.22;;;22.24;53.07
34742;BME280;20968;42.696;23.360;2023-05-29T09:25:54;95073.81;;;22.20;54.17
34742;BME280;20968;42.696;23.360;2023-05-29T09:28:45;95063.72;;;22.17;55.90
34742;BME280;20968;42.696;23.360;2023-05-29T09:31:17;95066.34;;;22.22;56.47
34742;BME280;20968;42.696;23.360;2023-05-29T09:33:48;95060.56;;;22.28;55.86
34742;BME280;20968;42.696;23.360;2023-05-29T09:36:21;95061.59;;;22.97;53.09
34742;BME280;20968;42.696;23.360;2023-05-29T09:38:48;95049.38;;;23.47;51.50
34742;BME280;20968;42.696;23.360;2023-05-29T09:41:20;95056.97;;;23.91;52.54
34742;BME280;20968;42.696;23.360;2023-05-29T09:43:48;95048.03;;;24.17;49.63
34742;BME280;20968;42.696;23.360;2023-05-29T09:46:15;95045.19;;;24.56;50.78
34742;BME280;20968;42.696;23.360;2023-05-29T09:48:42;95033.00;;;24.78;48.96
34742;BME280;20968;42.696;23.360;2023-05-29T09:51:19;95051.25;;;24.45;50.23
34742;BME280;20968;42.696;23.360;2023-05-29T09:53:45;95040.75;;;24.38;49.51
34742;BME280;20968;42.696;23.360;2023-05-29T09:56:12;95045.22;;;24.49;48.89
34742;BME280;20968;42.696;23.360;2023-05-29T09:58:42;95042.38;;;24.56;49.85
34742;BME280;20968;42.696;23.360;2023-05-29T10:01:13;95028.09;;;24.54;49.77
34742;BME280;20968;42.696;23.360;2023-05-29T10:03:41;95045.03;;;24.79;48.72
34742;BME280;20968;42.696;23.360;2023-05-29T10:06:11;95031.41;;;25.17;48.48
34742;BME280;20968;42.696;23.360;2023-05-29T10:08:45;95031.94;;;25.39;46.68
34742;BME280;20968;42.696;23.360;2023-05-29T10:11:20;95026.91;;;25.14;45.58
34742;BME280;20968;42.696;23.360;2023-05-29T10:13:51;95037.19;;;24.45;47.61
34742;BME280;20968;42.696;23.360;2023-05-29T10:16:20;95031.22;;;24.66;49.84
34742;BME280;20968;42.696;23.360;2023-05-29T10:18:56;95031.81;;;25.13;45.44
34742;BME280;20968;42.696;23.360;2023-05-29T10:21:24;95027.88;;;25.50;47.41
34742;BME280;20968;42.696;23.360;2023-05-29T10:23:52;95020.09;;;25.58;46.22
34742;BME280;20968;42.696;23.360;2023-05-29T10:26:26;95026.13;;;25.54;45.76
34742;BME280;20968;42.696;23.360;2023-05-29T10:28:57;95026.88;;;25.55;45.89
34742;BME280;20968;42.696;23.360;2023-05-29T10:31:30;95020.19;;;25.09;45.30
34742;BME280;20968;42.696;23.360;2023-05-29T10:36:47;95010.28;;;24.76;47.31
34742;BME280;20968;42.696;23.360;2023-05-29T10:39:15;95017.00;;;25.29;46.72
34742;BME280;20968;42.696;23.360;2023-05-29T10:41:41;95014.91;;;25.47;45.31
34742;BME280;20968;42.696;23.360;2023-05-29T10:44:39;95018.56;;;24.99;46.42
34742;BME280;20968;42.696;23.360;2023-05-29T10:47:05;95013.63;;;24.58;48.12
34742;BME280;20968;42.696;23.360;2023-05-29T10:49:31;95008.66;;;24.10;48.26
34742;BME280;20968;42.696;23.360;2023-05-29T10:51:57;95012.06;;;24.01;47.96
34742;BME280;20968;42.696;23.360;2023-05-29T10:54:24;95004.41;;;23.94;48.73
34742;BME280;20968;42.696;23.360;2023-05-29T10:56:58;94995.09;;;23.84;48.45
34742;BME280;20968;42.696;23.360;2023-05-29T10:59:26;95003.00;;;24.17;47.88
34742;BME280;20968;42.696;23.360;2023-05-29T11:01:54;94993.28;;;24.42;46.88
34742;BME280;20968;42.696;23.360;2023-05-29T11:06:52;94977.09;;;24.11;48.34
34742;BME280;20968;42.696;23.360;2023-05-29T11:09:37;94984.41;;;24.14;48.52
34742;BME280;20968;42.696;23.360;2023-05-29T11:12:16;94982.97;;;24.06;49.53
34742;BME280;20968;42.696;23.360;2023-05-29T11:17:43;94980.00;;;23.96;47.93
34742;BME280;20968;42.696;23.360;2023-05-29T11:20:43;94992.16;;;24.38;48.15
34742;BME280;20968;42.696;23.360;2023-05-29T11:23:15;94976.56;;;24.37;47.59
34742;BME280;20968;42.696;23.360;2023-05-29T11:25:44;94979.28;;;24.76;46.81
34742;BME280;20968;42.696;23.360;2023-05-29T11:28:10;94970.94;;;25.10;47.33
34742;BME280;20968;42.696;23.360;2023-05-29T11:30:48;94969.69;;;25.20;46.34
34742;BME280;20968;42.696;23.360;2023-05-29T11:33:24;94976.56;;;25.10;45.31
34742;BME280;20968;42.696;23.360;2023-05-29T11:35:58;94975.09;;;25.26;43.97
34742;BME280;20968;42.696;23.360;2023-05-29T11:38:28;94971.28;;;25.65;42.78
34742;BME280;20968;42.696;23.360;2023-05-29T11:40:54;94956.69;;;26.28;42.61
34742;BME280;20968;42.696;23.360;2023-05-29T11:43:20;94969.59;;;25.96;42.64
34742;BME280;20968;42.696;23.360;2023-05-29T11:45:46;94977.16;;;25.59;43.08
34742;BME280;20968;42.696;23.360;2023-05-29T11:48:12;94970.09;;;25.17;45.18
34742;BME280;20968;42.696;23.360;2023-05-29T11:50:37;94966.00;;;24.94;45.39
34742;BME280;20968;42.696;23.360;2023-05-29T11:53:02;94964.59;;;24.61;45.88
34742;BME280;20968;42.696;23.360;2023-05-29T11:55:30;94968.03;;;24.52;46.67
34742;BME280;20968;42.696;23.360;2023-05-29T11:58:02;94969.81;;;24.08;49.83
34742;BME280;20968;42.696;23.360;2023-05-29T12:00:32;94971.03;;;23.90;50.61
34742;BME280;20968;42.696;23.360;2023-05-29T12:02:59;94974.00;;;23.53;51.77
34742;BME280;20968;42.696;23.360;2023-05-29T12:05:29;94975.47;;;23.07;53.84
34742;BME280;20968;42.696;23.360;2023-05-29T12:07:59;94983.72;;;22.75;55.24
34742;BME280;20968;42.696;23.360;2023-05-29T12:10:30;94988.75;;;22.47;58.51
34742;BME280;20968;42.696;23.360;2023-05-29T12:13:27;94997.19;;;22.47;62.00
34742;BME280;20968;42.696;23.360;2023-05-29T12:16:01;95003.88;;;22.22;64.35
34742;BME280;20968;42.696;23.360;2023-05-29T12:19:05;95005.53;;;22.17;66.43
34742;BME280;20968;42.696;23.360;2023-05-29T12:22:10;95014.28;;;21.99;64.67
34742;BME280;20968;42.696;23.360;2023-05-29T12:25:12;95019.63;;;21.75;65.11
34742;BME280;20968;42.696;23.360;2023-05-29T12:27:55;95017.88;;;21.57;63.79
34742;BME280;20968;42.696;23.360;2023-05-29T12:30:45;95019.75;;;20.99;65.05
34742;BME280;20968;42.696;23.360;2023-05-29T12:34:08;95019.09;;;20.85;66.03
34742;BME280;20968;42.696;23.360;2023-05-29T12:37:06;95003.53;;;20.77;65.67
34742;BME280;20968;42.696;23.360;2023-05-29T12:40:47;95010.09;;;20.79;67.20
34742;BME280;20968;42.696;23.360;2023-05-29T12:43:58;95015.78;;;20.74;66.26
34742;BME280;20968;42.696;23.360;2023-05-29T12:46:47;95009.13;;;20.77;66.37
34742;BME280;20968;42.696;23.360;2023-05-29T12:49:42;95000.94;;;20.79;66.22
34742;BME280;20968;42.696;23.360;2023-05-29T12:52:59;94999.41;;;20.98;66.39
34742;BME280;20968;42.696;23.360;2023-05-29T12:55:47;94990.50;;;21.07;64.29
34742;BME280;20968;42.696;23.360;2023-05-29T12:58:36;94991.16;;;20.93;66.30
34742;BME280;20968;42.696;23.360;2023-05-29T13:01:58;94999.31;;;21.54;64.84
34742;BME280;20968;42.696;23.360;2023-05-29T13:04:51;95000.91;;;22.35;65.66
34742;BME280;20968;42.696;23.360;2023-05-29T13:07:27;94997.19;;;22.84;63.42
34742;BME280;20968;42.696;23.360;2023-05-29T13:10:14;94995.13;;;22.77;62.95
34742;BME280;20968;42.696;23.360;2023-05-29T13:12:43;94997.94;;;22.92;60.80
34742;BME280;20968;42.696;23.360;2023-05-29T13:15:22;94989.66;;;23.17;59.42
34742;BME280;20968;42.696;23.360;2023-05-29T13:21:34;94976.22;;;22.56;60.64
34742;BME280;20968;42.696;23.360;2023-05-29T13:24:24;94981.03;;;22.25;60.44
34742;BME280;20968;42.696;23.360;2023-05-29T13:27:00;94985.69;;;22.15;60.74
34742;BME280;20968;42.696;23.360;2023-05-29T13:30:17;94979.69;;;21.96;60.67
34742;BME280;20968;42.696;23.360;2023-05-29T13:32:47;94968.47;;;22.04;60.16
34742;BME280;20968;42.696;23.360;2023-05-29T13:35:50;94973.69;;;21.92;59.14
34742;BME280;20968;42.696;23.360;2023-05-29T13:38:45;94981.72;;;21.96;57.82
34742;BME280;20968;42.696;23.360;2023-05-29T13:41:52;94967.75;;;22.26;58.66
34742;BME280;20968;42.696;23.360;2023-05-29T13:44:31;94972.66;;;22.77;57.60
34742;BME280;20968;42.696;23.360;2023-05-29T13:47:01;94969.03;;;23.29;57.07
34742;BME280;20968;42.696;23.360;2023-05-29T13:49:44;94973.28;;;23.45;54.01
34742;BME280;20968;42.696;23.360;2023-05-29T13:52:36;94976.53;;;23.81;53.25
34742;BME280;20968;42.696;23.360;2023-05-29T13:55:07;94979.22;;;24.35;53.15
34742;BME280;20968;42.696;23.360;2023-05-29T13:57:34;94978.34;;;23.93;51.84
34742;BME280;20968;42.696;23.360;2023-05-29T14:00:22;94991.47;;;23.37;51.50
34742;BME280;20968;42.696;23.360;2023-05-29T14:03:28;94985.19;;;22.84;53.34
34742;BME280;20968;42.696;23.360;2023-05-29T14:06:18;94982.97;;;22.38;55.21
34742;BME280;20968;42.696;23.360;2023-05-29T14:09:26;94981.19;;;21.97;57.58
34742;BME280;20968;42.696;23.360;2023-05-29T14:12:05;94983.72;;;21.73;59.71
34742;BME280;20968;42.696;23.360;2023-05-29T14:14:57;94988.66;;;21.45;60.94
34742;BME280;20968;42.696;23.360;2023-05-29T14:17:23;94971.72;;;21.65;61.54
34742;BME280;20968;42.696;23.360;2023-05-29T14:19:48;94978.19;;;22.03;58.43
34742;BME280;20968;42.696;23.360;2023-05-29T14:22:43;94997.19;;;22.40;57.00